sensor_id;sensor_type;location;lat;lon;timestamp;P1;durP1;ratioP1;P2;durP2;ratioP2
28007;SDS011;15333;50.010;20.020;2023-06-14T00:02:34;33.25;;;19.65;;
28007;SDS011;15333;50.010;20.020;2023-06-14T00:05:36;30.48;;;18.67;;
28007;SDS011;15333;50.010;20.020;2023-06-14T00:08:43;34.05;;;18.52;;
28007;SDS011;15333;50.010;20.020;2023-06-14T00:11:44;33.00;;;19.58;;
28007;SDS011;15333;50.010;20.020;2023-06-14T00:14:45;30.85;;;19.50;;
28007;SDS011;15333;50.010;20.020;2023-06-14T00:17:46;30.70;;;19.42;;
28007;SDS011;15333;50.010;20.020;2023-06-14T00:20:47;33.45;;;20.35;;
28007;SDS011;15333;50.010;20.020;2023-06-14T00:23:48;32.83;;;19.65;;
28007;SDS011;15333;50.010;20.020;2023-06-14T00:26:49;31.45;;;19.55;;
28007;SDS011;15333;50.010;20.020;2023-06-14T00:29:50;32.60;;;19.48;;
28007;SDS011;15333;50.010;20.020;2023-06-14T00:45:42;33.05;;;21.75;;
28007;SDS011;15333;50.010;20.020;2023-06-14T00:48:43;34.97;;;22.40;;
28007;SDS011;15333;50.010;20.020;2023-06-14T00:51:44;40.15;;;23.90;;
28007;SDS011;15333;50.010;20.020;2023-06-14T00:54:46;45.08;;;23.70;;
28007;SDS011;15333;50.010;20.020;2023-06-14T00:57:47;42.78;;;24.55;;
28007;SDS011;15333;50.010;20.020;2023-06-14T01:00:49;39.63;;;23.30;;
28007;SDS011;15333;50.010;20.020;2023-06-14T01:03:51;40.65;;;23.95;;
28007;SDS011;15333;50.010;20.020;2023-06-14T01:07:00;45.72;;;25.48;;
28007;SDS011;15333;50.010;20.020;2023-06-14T01:10:30;39.00;;;24.58;;
28007;SDS011;15333;50.010;20.020;2023-06-14T01:13:43;39.70;;;24.02;;
28007;SDS011;15333;50.010;20.020;2023-06-14T01:16:46;37.42;;;22.77;;
28007;SDS011;15333;50.010;20.020;2023-06-14T01:19:50;36.75;;;22.50;;
28007;SDS011;15333;50.010;20.020;2023-06-14T01:22:58;35.28;;;21.95;;
28007;SDS011;15333;50.010;20.020;2023-06-14T01:26:00;40.75;;;23.88;;
28007;SDS011;15333;50.010;20.020;2023-06-14T01:29:05;37.80;;;22.20;;
28007;SDS011;15333;50.010;20.020;2023-06-14T01:32:07;39.70;;;22.55;;
28007;SDS011;15333;50.010;20.020;2023-06-14T01:35:08;34.42;;;20.67;;
28007;SDS011;15333;50.010;20.020;2023-06-14T01:38:09;41.50;;;23.17;;
28007;SDS011;15333;50.010;20.020;2023-06-14T01:41:10;43.05;;;24.10;;
28007;SDS011;15333;50.010;20.020;2023-06-14T01:44:12;45.20;;;27.13;;
28007;SDS011;15333;50.010;20.020;2023-06-14T01:47:14;46.42;;;26.60;;
28007;SDS011;15333;50.010;20.020;2023-06-14T01:50:15;49.72;;;26.88;;
28007;SDS011;15333;50.010;20.020;2023-06-14T01:53:17;44.45;;;26.08;;
28007;SDS011;15333;50.010;20.020;2023-06-14T01:56:18;51.97;;;28.65;;
28007;SDS011;15333;50.010;20.020;2023-06-14T01:59:19;50.25;;;28.10;;
28007;SDS011;15333;50.010;20.020;2023-06-14T02:02:20;50.50;;;28.83;;
28007;SDS011;15333;50.010;20.020;2023-06-14T02:05:21;53.83;;;27.58;;
28007;SDS011;15333;50.010;20.020;2023-06-14T02:08:22;49.63;;;28.17;;
28007;SDS011;15333;50.010;20.020;2023-06-14T02:11:24;52.13;;;27.17;;
28007;SDS011;15333;50.010;20.020;2023-06-14T02:14:25;39.47;;;22.60;;
28007;SDS011;15333;50.010;20.020;2023-06-14T02:17:27;45.08;;;25.20;;
28007;SDS011;15333;50.010;20.020;2023-06-14T02:20:29;41.28;;;24.13;;
28007;SDS011;15333;50.010;20.020;2023-06-14T02:23:31;48.28;;;25.65;;
28007;SDS011;15333;50.010;20.020;2023-06-14T02:26:33;50.75;;;27.05;;
28007;SDS011;15333;50.010;20.020;2023-06-14T02:29:34;48.35;;;28.15;;
28007;SDS011;15333;50.010;20.020;2023-06-14T02:32:37;51.80;;;28.50;;
28007;SDS011;15333;50.010;20.020;2023-06-14T02:35:39;48.42;;;27.88;;
28007;SDS011;15333;50.010;20.020;2023-06-14T02:38:40;50.05;;;26.73;;
28007;SDS011;15333;50.010;20.020;2023-06-14T02:41:46;52.13;;;27.48;;
28007;SDS011;15333;50.010;20.020;2023-06-14T02:44:47;50.63;;;27.35;;
28007;SDS011;15333;50.010;20.020;2023-06-14T02:47:51;55.95;;;27.85;;
28007;SDS011;15333;50.010;20.020;2023-06-14T02:50:52;51.35;;;27.25;;
28007;SDS011;15333;50.010;20.020;2023-06-14T02:53:53;51.83;;;29.35;;
28007;SDS011;15333;50.010;20.020;2023-06-14T02:56:54;59.67;;;29.38;;
28007;SDS011;15333;50.010;20.020;2023-06-14T02:59:57;61.60;;;30.48;;
28007;SDS011;15333;50.010;20.020;2023-06-14T03:02:58;62.53;;;31.55;;
28007;SDS011;15333;50.010;20.020;2023-06-14T03:06:03;56.13;;;29.50;;
28007;SDS011;15333;50.010;20.020;2023-06-14T03:09:07;54.08;;;29.30;;
28007;SDS011;15333;50.010;20.020;2023-06-14T03:12:12;63.95;;;32.08;;
28007;SDS011;15333;50.010;20.020;2023-06-14T03:15:14;54.33;;;29.08;;
28007;SDS011;15333;50.010;20.020;2023-06-14T03:18:18;50.45;;;28.77;;
28007;SDS011;15333;50.010;20.020;2023-06-14T03:21:24;58.60;;;29.48;;
28007;SDS011;15333;50.010;20.020;2023-06-14T03:24:27;50.47;;;28.60;;
28007;SDS011;15333;50.010;20.020;2023-06-14T03:27:31;61.75;;;31.45;;
28007;SDS011;15333;50.010;20.020;2023-06-14T03:30:32;67.55;;;34.72;;
28007;SDS011;15333;50.010;20.020;2023-06-14T03:33:34;62.08;;;33.10;;
28007;SDS011;15333;50.010;20.020;2023-06-14T03:36:36;77.47;;;34.45;;
28007;SDS011;15333;50.010;20.020;2023-06-14T03:39:37;76.43;;;35.80;;
28007;SDS011;15333;50.010;20.020;2023-06-14T03:42:39;66.20;;;33.25;;
28007;SDS011;15333;50.010;20.020;2023-06-14T03:45:40;66.13;;;33.40;;
28007;SDS011;15333;50.010;20.020;2023-06-14T03:48:43;71.50;;;34.70;;
28007;SDS011;15333;50.010;20.020;2023-06-14T03:51:43;67.60;;;33.42;;
28007;SDS011;15333;50.010;20.020;2023-06-14T03:54:45;69.97;;;33.15;;
28007;SDS011;15333;50.010;20.020;2023-06-14T03:57:47;72.07;;;33.20;;
28007;SDS011;15333;50.010;20.020;2023-06-14T04:00:51;70.50;;;32.92;;
28007;SDS011;15333;50.010;20.020;2023-06-14T04:03:52;64.78;;;33.28;;
28007;SDS011;15333;50.010;20.020;2023-06-14T04:06:54;62.60;;;32.17;;
28007;SDS011;15333;50.010;20.020;2023-06-14T04:09:56;66.40;;;32.75;;
28007;SDS011;15333;50.010;20.020;2023-06-14T04:12:57;82.47;;;34.83;;
28007;SDS011;15333;50.010;20.020;2023-06-14T04:15:58;78.70;;;34.72;;
28007;SDS011;15333;50.010;20.020;2023-06-14T04:19:06;76.40;;;33.67;;
28007;SDS011;15333;50.010;20.020;2023-06-14T04:22:07;76.82;;;33.25;;
28007;SDS011;15333;50.010;20.020;2023-06-14T04:25:11;73.90;;;33.25;;
28007;SDS011;15333;50.010;20.020;2023-06-14T04:28:13;79.60;;;34.42;;
28007;SDS011;15333;50.010;20.020;2023-06-14T04:31:19;72.55;;;32.30;;
28007;SDS011;15333;50.010;20.020;2023-06-14T04:34:21;72.13;;;31.33;;
28007;SDS011;15333;50.010;20.020;2023-06-14T04:37:31;67.95;;;31.75;;
28007;SDS011;15333;50.010;20.020;2023-06-14T04:40:32;69.20;;;32.78;;
28007;SDS011;15333;50.010;20.020;2023-06-14T04:43:34;78.20;;;33.47;;
28007;SDS011;15333;50.010;20.020;2023-06-14T04:46:39;63.88;;;31.75;;
28007;SDS011;15333;50.010;20.020;2023-06-14T04:49:50;79.25;;;33.53;;
28007;SDS011;15333;50.010;20.020;2023-06-14T04:52:55;73.90;;;32.67;;
28007;SDS011;15333;50.010;20.020;2023-06-14T04:55:58;79.57;;;32.65;;
28007;SDS011;15333;50.010;20.020;2023-06-14T04:58:59;80.43;;;33.42;;
28007;SDS011;15333;50.010;20.020;2023-06-14T05:02:01;80.65;;;33.20;;
28007;SDS011;15333;50.010;20.020;2023-06-14T05:05:02;80.13;;;34.65;;
28007;SDS011;15333;50.010;20.020;2023-06-14T05:08:03;75.18;;;33.22;;
28007;SDS011;15333;50.010;20.020;2023-06-14T05:11:04;71.70;;;33.55;;
28007;SDS011;15333;50.010;20.020;2023-06-14T05:14:05;76.38;;;35.03;;
28007;SDS011;15333;50.010;20.020;2023-06-14T05:17:07;79.25;;;33.75;;
28007;SDS011;15333;50.010;20.020;2023-06-14T05:20:08;81.22;;;34.90;;
28007;SDS011;15333;50.010;20.020;2023-06-14T05:23:10;77.93;;;34.28;;
28007;SDS011;15333;50.010;20.020;2023-06-14T05:26:15;79.45;;;33.78;;
28007;SDS011;15333;50.010;20.020;2023-06-14T05:29:16;79.32;;;32.85;;
28007;SDS011;15333;50.010;20.020;2023-06-14T05:32:17;74.78;;;32.83;;
28007;SDS011;15333;50.010;20.020;2023-06-14T05:35:18;73.22;;;32.67;;
28007;SDS011;15333;50.010;20.020;2023-06-14T05:38:19;81.97;;;31.90;;
28007;SDS011;15333;50.010;20.020;2023-06-14T05:41:20;72.35;;;32.05;;
28007;SDS011;15333;50.010;20.020;2023-06-14T05:44:21;70.40;;;30.52;;
28007;SDS011;15333;50.010;20.020;2023-06-14T05:47:22;70.45;;;30.65;;
28007;SDS011;15333;50.010;20.020;2023-06-14T05:50:23;65.40;;;30.13;;
28007;SDS011;15333;50.010;20.020;2023-06-14T05:53:24;70.43;;;32.17;;
28007;SDS011;15333;50.010;20.020;2023-06-14T05:56:25;67.43;;;30.95;;
28007;SDS011;15333;50.010;20.020;2023-06-14T05:59:26;72.85;;;31.05;;
28007;SDS011;15333;50.010;20.020;2023-06-14T06:02:27;76.32;;;32.15;;
28007;SDS011;15333;50.010;20.020;2023-06-14T06:05:28;73.45;;;31.10;;
28007;SDS011;15333;50.010;20.020;2023-06-14T06:08:29;70.57;;;31.17;;
28007;SDS011;15333;50.010;20.020;2023-06-14T06:11:31;67.13;;;31.58;;
28007;SDS011;15333;50.010;20.020;2023-06-14T06:14:33;63.03;;;30.38;;
28007;SDS011;15333;50.010;20.020;2023-06-14T06:17:33;65.70;;;30.98;;
28007;SDS011;15333;50.010;20.020;2023-06-14T06:20:35;72.20;;;32.80;;
28007;SDS011;15333;50.010;20.020;2023-06-14T06:23:36;80.80;;;34.33;;
28007;SDS011;15333;50.010;20.020;2023-06-14T06:26:37;79.07;;;35.63;;
28007;SDS011;15333;50.010;20.020;2023-06-14T06:29:41;78.90;;;33.80;;
28007;SDS011;15333;50.010;20.020;2023-06-14T06:32:45;76.40;;;33.90;;
28007;SDS011;15333;50.010;20.020;2023-06-14T06:35:46;73.80;;;34.13;;
28007;SDS011;15333;50.010;20.020;2023-06-14T06:38:48;81.65;;;34.55;;
28007;SDS011;15333;50.010;20.020;2023-06-14T06:41:49;73.43;;;33.78;;
28007;SDS011;15333;50.010;20.020;2023-06-14T06:45:00;64.47;;;30.83;;
28007;SDS011;15333;50.010;20.020;2023-06-14T06:48:02;73.28;;;32.55;;
28007;SDS011;15333;50.010;20.020;2023-06-14T06:51:03;69.72;;;32.35;;
28007;SDS011;15333;50.010;20.020;2023-06-14T06:54:04;80.13;;;33.88;;
28007;SDS011;15333;50.010;20.020;2023-06-14T06:57:06;72.63;;;34.30;;
28007;SDS011;15333;50.010;20.020;2023-06-14T07:00:08;86.75;;;35.38;;
28007;SDS011;15333;50.010;20.020;2023-06-14T07:03:10;91.53;;;37.80;;
28007;SDS011;15333;50.010;20.020;2023-06-14T07:06:12;78.47;;;34.67;;
28007;SDS011;15333;50.010;20.020;2023-06-14T07:09:13;68.75;;;33.50;;
28007;SDS011;15333;50.010;20.020;2023-06-14T07:12:15;74.07;;;34.80;;
28007;SDS011;15333;50.010;20.020;2023-06-14T07:15:16;73.60;;;33.63;;
28007;SDS011;15333;50.010;20.020;2023-06-14T07:18:17;67.13;;;32.47;;
28007;SDS011;15333;50.010;20.020;2023-06-14T07:21:18;65.72;;;32.47;;
28007;SDS011;15333;50.010;20.020;2023-06-14T07:24:19;62.75;;;32.20;;
28007;SDS011;15333;50.010;20.020;2023-06-14T07:27:22;59.63;;;29.80;;
28007;SDS011;15333;50.010;20.020;2023-06-14T07:30:22;59.13;;;30.73;;
28007;SDS011;15333;50.010;20.020;2023-06-14T07:33:26;51.00;;;28.00;;
28007;SDS011;15333;50.010;20.020;2023-06-14T07:36:27;55.25;;;28.67;;
28007;SDS011;15333;50.010;20.020;2023-06-14T07:39:28;58.03;;;26.90;;
28007;SDS011;15333;50.010;20.020;2023-06-14T07:42:29;46.58;;;25.95;;
28007;SDS011;15333;50.010;20.020;2023-06-14T07:45:30;44.00;;;23.20;;
28007;SDS011;15333;50.010;20.020;2023-06-14T07:48:31;30.73;;;17.73;;
28007;SDS011;15333;50.010;20.020;2023-06-14T07:51:32;16.90;;;10.75;;
28007;SDS011;15333;50.010;20.020;2023-06-14T07:54:33;18.42;;;10.75;;
28007;SDS011;15333;50.010;20.020;2023-06-14T07:57:34;12.98;;;9.15;;
28007;SDS011;15333;50.010;20.020;2023-06-14T08:00:35;24.63;;;15.20;;
28007;SDS011;15333;50.010;20.020;2023-06-14T08:03:36;35.40;;;20.42;;
28007;SDS011;15333;50.010;20.020;2023-06-14T08:06:37;26.05;;;15.18;;
28007;SDS011;15333;50.010;20.020;2023-06-14T08:09:38;18.42;;;12.38;;
28007;SDS011;15333;50.010;20.020;2023-06-14T08:12:39;24.02;;;16.05;;
28007;SDS011;15333;50.010;20.020;2023-06-14T08:15:40;26.42;;;18.98;;
28007;SDS011;15333;50.010;20.020;2023-06-14T08:18:41;21.75;;;16.05;;
28007;SDS011;15333;50.010;20.020;2023-06-14T08:21:42;21.10;;;15.15;;
28007;SDS011;15333;50.010;20.020;2023-06-14T08:24:44;17.25;;;12.25;;
28007;SDS011;15333;50.010;20.020;2023-06-14T08:27:45;19.38;;;10.60;;
28007;SDS011;15333;50.010;20.020;2023-06-14T08:30:46;15.15;;;9.75;;
28007;SDS011;15333;50.010;20.020;2023-06-14T08:33:47;18.08;;;7.68;;
28007;SDS011;15333;50.010;20.020;2023-06-14T08:36:47;11.25;;;8.02;;
28007;SDS011;15333;50.010;20.020;2023-06-14T08:39:48;9.13;;;7.50;;
28007;SDS011;15333;50.010;20.020;2023-06-14T08:42:53;12.98;;;8.50;;
28007;SDS011;15333;50.010;20.020;2023-06-14T08:45:57;10.73;;;8.10;;
28007;SDS011;15333;50.010;20.020;2023-06-14T08:49:01;10.90;;;8.70;;
28007;SDS011;15333;50.010;20.020;2023-06-14T08:52:03;11.98;;;9.43;;
28007;SDS011;15333;50.010;20.020;2023-06-14T08:55:07;14.38;;;10.05;;
28007;SDS011;15333;50.010;20.020;2023-06-14T08:58:10;14.95;;;10.32;;
28007;SDS011;15333;50.010;20.020;2023-06-14T09:01:14;13.63;;;10.70;;
28007;SDS011;15333;50.010;20.020;2023-06-14T09:04:17;11.52;;;9.70;;
28007;SDS011;15333;50.010;20.020;2023-06-14T09:07:19;11.85;;;10.65;;
28007;SDS011;15333;50.010;20.020;2023-06-14T09:10:21;15.23;;;10.63;;
28007;SDS011;15333;50.010;20.020;2023-06-14T09:13:23;16.17;;;12.82;;
28007;SDS011;15333;50.010;20.020;2023-06-14T09:16:25;13.73;;;12.30;;
28007;SDS011;15333;50.010;20.020;2023-06-14T09:19:26;16.45;;;13.13;;
28007;SDS011;15333;50.010;20.020;2023-06-14T09:22:29;14.98;;;12.35;;
28007;SDS011;15333;50.010;20.020;2023-06-14T09:25:31;18.13;;;14.60;;
28007;SDS011;15333;50.010;20.020;2023-06-14T09:28:32;19.00;;;13.85;;
28007;SDS011;15333;50.010;20.020;2023-06-14T09:31:32;19.88;;;11.73;;
28007;SDS011;15333;50.010;20.020;2023-06-14T09:34:34;24.25;;;14.20;;
28007;SDS011;15333;50.010;20.020;2023-06-14T09:37:35;18.77;;;13.75;;
28007;SDS011;15333;50.010;20.020;2023-06-14T09:40:38;16.85;;;12.77;;
28007;SDS011;15333;50.010;20.020;2023-06-14T09:43:40;17.50;;;13.98;;
28007;SDS011;15333;50.010;20.020;2023-06-14T09:46:41;19.98;;;15.25;;
28007;SDS011;15333;50.010;20.020;2023-06-14T09:49:42;20.25;;;14.75;;
28007;SDS011;15333;50.010;20.020;2023-06-14T09:52:43;25.50;;;16.63;;
28007;SDS011;15333;50.010;20.020;2023-06-14T09:55:47;25.77;;;17.67;;
28007;SDS011;15333;50.010;20.020;2023-06-14T09:58:51;26.75;;;16.92;;
28007;SDS011;15333;50.010;20.020;2023-06-14T10:01:57;24.42;;;18.10;;
28007;SDS011;15333;50.010;20.020;2023-06-14T10:08:10;19.70;;;13.38;;
28007;SDS011;15333;50.010;20.020;2023-06-14T10:11:14;18.50;;;15.13;;
28007;SDS011;15333;50.010;20.020;2023-06-14T10:14:15;18.85;;;13.73;;
28007;SDS011;15333;50.010;20.020;2023-06-14T10:17:20;25.17;;;16.30;;
28007;SDS011;15333;50.010;20.020;2023-06-14T10:20:37;20.10;;;15.10;;
28007;SDS011;15333;50.010;20.020;2023-06-14T10:23:46;19.65;;;14.00;;
28007;SDS011;15333;50.010;20.020;2023-06-14T10:26:53;20.20;;;13.93;;
28007;SDS011;15333;50.010;20.020;2023-06-14T10:33:05;22.35;;;13.98;;
28007;SDS011;15333;50.010;20.020;2023-06-14T10:36:08;19.05;;;13.43;;
28007;SDS011;15333;50.010;20.020;2023-06-14T10:39:16;18.05;;;12.02;;
28007;SDS011;15333;50.010;20.020;2023-06-14T10:42:19;14.18;;;10.98;;
28007;SDS011;15333;50.010;20.020;2023-06-14T10:45:20;16.15;;;12.10;;
28007;SDS011;15333;50.010;20.020;2023-06-14T10:48:29;14.07;;;12.00;;
28007;SDS011;15333;50.010;20.020;2023-06-14T10:51:30;17.10;;;12.95;;
28007;SDS011;15333;50.010;20.020;2023-06-14T10:55:12;21.77;;;15.30;;
28007;SDS011;15333;50.010;20.020;2023-06-14T10:58:19;21.38;;;16.85;;
28007;SDS011;15333;50.010;20.020;2023-06-14T11:01:22;15.52;;;11.43;;
28007;SDS011;15333;50.010;20.020;2023-06-14T11:04:51;21.00;;;13.45;;
28007;SDS011;15333;50.010;20.020;2023-06-14T11:11:24;19.45;;;13.40;;
28007;SDS011;15333;50.010;20.020;2023-06-14T11:14:33;17.70;;;14.05;;
28007;SDS011;15333;50.010;20.020;2023-06-14T11:17:34;16.92;;;14.60;;
28007;SDS011;15333;50.010;20.020;2023-06-14T11:20:35;21.55;;;16.70;;
28007;SDS011;15333;50.010;20.020;2023-06-14T11:23:37;20.45;;;15.52;;
28007;SDS011;15333;50.010;20.020;2023-06-14T11:26:38;20.88;;;16.58;;
28007;SDS011;15333;50.010;20.020;2023-06-14T11:29:40;24.67;;;16.50;;
28007;SDS011;15333;50.010;20.020;2023-06-14T11:32:48;22.80;;;16.80;;
28007;SDS011;15333;50.010;20.020;2023-06-14T11:35:50;20.10;;;17.15;;
28007;SDS011;15333;50.010;20.020;2023-06-14T11:38:57;30.50;;;22.95;;
28007;SDS011;15333;50.010;20.020;2023-06-14T11:42:07;32.03;;;23.45;;
28007;SDS011;15333;50.010;20.020;2023-06-14T11:45:09;26.02;;;18.45;;
28007;SDS011;15333;50.010;20.020;2023-06-14T11:48:11;16.15;;;13.65;;
28007;SDS011;15333;50.010;20.020;2023-06-14T11:51:12;18.48;;;14.73;;
28007;SDS011;15333;50.010;20.020;2023-06-14T11:54:12;17.67;;;13.27;;
28007;SDS011;15333;50.010;20.020;2023-06-14T11:57:14;10.88;;;9.68;;
28007;SDS011;15333;50.010;20.020;2023-06-14T12:00:15;15.18;;;11.65;;
28007;SDS011;15333;50.010;20.020;2023-06-14T12:03:22;12.95;;;9.88;;
28007;SDS011;15333;50.010;20.020;2023-06-14T12:06:27;15.23;;;10.45;;
28007;SDS011;15333;50.010;20.020;2023-06-14T12:09:29;12.90;;;11.50;;
28007;SDS011;15333;50.010;20.020;2023-06-14T12:12:30;13.07;;;11.05;;
28007;SDS011;15333;50.010;20.020;2023-06-14T12:15:31;16.25;;;12.23;;
28007;SDS011;15333;50.010;20.020;2023-06-14T12:18:33;14.90;;;12.02;;
28007;SDS011;15333;50.010;20.020;2023-06-14T12:21:38;14.93;;;12.45;;
28007;SDS011;15333;50.010;20.020;2023-06-14T12:24:44;14.00;;;12.50;;
28007;SDS011;15333;50.010;20.020;2023-06-14T12:27:46;15.48;;;13.27;;
28007;SDS011;15333;50.010;20.020;2023-06-14T12:30:47;18.35;;;12.30;;
28007;SDS011;15333;50.010;20.020;2023-06-14T12:33:48;15.65;;;12.25;;
28007;SDS011;15333;50.010;20.020;2023-06-14T12:36:58;11.82;;;10.40;;
28007;SDS011;15333;50.010;20.020;2023-06-14T12:43:00;11.48;;;9.07;;
28007;SDS011;15333;50.010;20.020;2023-06-14T12:46:01;11.93;;;9.18;;
28007;SDS011;15333;50.010;20.020;2023-06-14T12:49:02;10.77;;;8.95;;
28007;SDS011;15333;50.010;20.020;2023-06-14T12:52:03;15.43;;;9.63;;
28007;SDS011;15333;50.010;20.020;2023-06-14T12:55:05;9.50;;;7.68;;
28007;SDS011;15333;50.010;20.020;2023-06-14T12:58:07;10.02;;;8.10;;
28007;SDS011;15333;50.010;20.020;2023-06-14T13:01:08;13.25;;;10.20;;
28007;SDS011;15333;50.010;20.020;2023-06-14T13:04:09;11.23;;;9.02;;
28007;SDS011;15333;50.010;20.020;2023-06-14T13:07:10;11.93;;;8.85;;
28007;SDS011;15333;50.010;20.020;2023-06-14T13:10:11;10.35;;;8.35;;
28007;SDS011;15333;50.010;20.020;2023-06-14T13:13:12;13.23;;;10.13;;
28007;SDS011;15333;50.010;20.020;2023-06-14T13:16:14;12.60;;;10.35;;
28007;SDS011;15333;50.010;20.020;2023-06-14T13:19:14;10.77;;;8.23;;
28007;SDS011;15333;50.010;20.020;2023-06-14T13:22:15;17.90;;;9.60;;
28007;SDS011;15333;50.010;20.020;2023-06-14T13:25:16;9.93;;;8.90;;
28007;SDS011;15333;50.010;20.020;2023-06-14T13:28:17;11.10;;;7.85;;
28007;SDS011;15333;50.010;20.020;2023-06-14T13:31:18;10.05;;;7.75;;
28007;SDS011;15333;50.010;20.020;2023-06-14T13:34:19;10.27;;;8.10;;
28007;SDS011;15333;50.010;20.020;2023-06-14T13:37:20;10.95;;;7.53;;
28007;SDS011;15333;50.010;20.020;2023-06-14T13:40:21;10.00;;;7.53;;
28007;SDS011;15333;50.010;20.020;2023-06-14T13:43:22;11.43;;;7.80;;
28007;SDS011;15333;50.010;20.020;2023-06-14T13:46:23;10.55;;;8.35;;
28007;SDS011;15333;50.010;20.020;2023-06-14T13:49:24;11.10;;;7.82;;
28007;SDS011;15333;50.010;20.020;2023-06-14T13:52:25;8.43;;;7.07;;
28007;SDS011;15333;50.010;20.020;2023-06-14T13:55:26;8.70;;;6.70;;
28007;SDS011;15333;50.010;20.020;2023-06-14T13:58:27;8.90;;;6.88;;
28007;SDS011;15333;50.010;20.020;2023-06-14T14:01:29;11.25;;;6.70;;
28007;SDS011;15333;50.010;20.020;2023-06-14T14:04:31;7.75;;;6.35;;
28007;SDS011;15333;50.010;20.020;2023-06-14T14:07:32;7.20;;;5.75;;
28007;SDS011;15333;50.010;20.020;2023-06-14T14:10:33;13.55;;;6.57;;
28007;SDS011;15333;50.010;20.020;2023-06-14T14:13:34;8.25;;;6.47;;
28007;SDS011;15333;50.010;20.020;2023-06-14T14:16:37;9.43;;;6.07;;
28007;SDS011;15333;50.010;20.020;2023-06-14T14:19:38;10.82;;;6.38;;
28007;SDS011;15333;50.010;20.020;2023-06-14T14:22:39;10.13;;;7.53;;
28007;SDS011;15333;50.010;20.020;2023-06-14T14:25:40;15.32;;;7.72;;
28007;SDS011;15333;50.010;20.020;2023-06-14T14:28:41;8.35;;;6.45;;
28007;SDS011;15333;50.010;20.020;2023-06-14T14:31:42;10.95;;;6.35;;
28007;SDS011;15333;50.010;20.020;2023-06-14T14:34:43;9.73;;;6.53;;
28007;SDS011;15333;50.010;20.020;2023-06-14T14:37:44;8.07;;;6.03;;
28007;SDS011;15333;50.010;20.020;2023-06-14T14:40:45;9.07;;;6.22;;
28007;SDS011;15333;50.010;20.020;2023-06-14T14:43:46;10.80;;;6.18;;
28007;SDS011;15333;50.010;20.020;2023-06-14T14:46:47;7.43;;;5.53;;
28007;SDS011;15333;50.010;20.020;2023-06-14T14:49:48;6.47;;;4.97;;
28007;SDS011;15333;50.010;20.020;2023-06-14T14:52:49;8.43;;;4.60;;
28007;SDS011;15333;50.010;20.020;2023-06-14T14:55:49;5.95;;;3.90;;
28007;SDS011;15333;50.010;20.020;2023-06-14T14:58:50;6.35;;;4.70;;
28007;SDS011;15333;50.010;20.020;2023-06-14T15:01:52;11.88;;;6.18;;
28007;SDS011;15333;50.010;20.020;2023-06-14T15:04:53;14.13;;;6.45;;
28007;SDS011;15333;50.010;20.020;2023-06-14T15:07:54;9.18;;;5.80;;
28007;SDS011;15333;50.010;20.020;2023-06-14T15:10:55;7.55;;;5.53;;
28007;SDS011;15333;50.010;20.020;2023-06-14T15:13:56;8.50;;;5.13;;
28007;SDS011;15333;50.010;20.020;2023-06-14T15:16:58;7.53;;;5.53;;
28007;SDS011;15333;50.010;20.020;2023-06-14T15:20:02;6.93;;;4.85;;
28007;SDS011;15333;50.010;20.020;2023-06-14T15:23:03;7.68;;;5.20;;
28007;SDS011;15333;50.010;20.020;2023-06-14T15:26:04;11.32;;;4.82;;
28007;SDS011;15333;50.010;20.020;2023-06-14T15:29:05;6.93;;;4.95;;
28007;SDS011;15333;50.010;20.020;2023-06-14T15:32:06;7.00;;;4.50;;
28007;SDS011;15333;50.010;20.020;2023-06-14T15:35:07;6.68;;;4.75;;
28007;SDS011;15333;50.010;20.020;2023-06-14T15:38:08;8.43;;;5.32;;
28007;SDS011;15333;50.010;20.020;2023-06-14T15:41:09;5.32;;;4.60;;
28007;SDS011;15333;50.010;20.020;2023-06-14T15:44:10;8.82;;;5.15;;
28007;SDS011;15333;50.010;20.020;2023-06-14T15:47:12;8.50;;;4.93;;
28007;SDS011;15333;50.010;20.020;2023-06-14T15:50:12;8.68;;;4.65;;
28007;SDS011;15333;50.010;20.020;2023-06-14T15:53:13;6.40;;;4.93;;
28007;SDS011;15333;50.010;20.020;2023-06-14T15:56:14;8.98;;;4.40;;
28007;SDS011;15333;50.010;20.020;2023-06-14T15:59:15;7.22;;;4.57;;
28007;SDS011;15333;50.010;20.020;2023-06-14T16:02:16;7.95;;;4.93;;
28007;SDS011;15333;50.010;20.020;2023-06-14T16:05:17;7.07;;;5.22;;
28007;SDS011;15333;50.010;20.020;2023-06-14T16:08:19;7.55;;;5.32;;
28007;SDS011;15333;50.010;20.020;2023-06-14T16:11:20;9.07;;;5.50;;
28007;SDS011;15333;50.010;20.020;2023-06-14T16:14:20;6.05;;;5.10;;
28007;SDS011;15333;50.010;20.020;2023-06-14T16:17:22;9.77;;;7.07;;
28007;SDS011;15333;50.010;20.020;2023-06-14T16:20:22;11.68;;;7.30;;
28007;SDS011;15333;50.010;20.020;2023-06-14T16:23:23;11.65;;;7.18;;
28007;SDS011;15333;50.010;20.020;2023-06-14T16:26:24;7.95;;;6.25;;
28007;SDS011;15333;50.010;20.020;2023-06-14T16:29:26;8.68;;;5.88;;
28007;SDS011;15333;50.010;20.020;2023-06-14T16:32:27;8.57;;;6.38;;
28007;SDS011;15333;50.010;20.020;2023-06-14T16:35:28;8.48;;;5.53;;
28007;SDS011;15333;50.010;20.020;2023-06-14T16:38:31;6.47;;;4.65;;
28007;SDS011;15333;50.010;20.020;2023-06-14T16:41:32;6.75;;;4.93;;
28007;SDS011;15333;50.010;20.020;2023-06-14T16:44:32;8.13;;;4.65;;
28007;SDS011;15333;50.010;20.020;2023-06-14T16:47:33;7.55;;;5.30;;
28007;SDS011;15333;50.010;20.020;2023-06-14T16:50:35;5.38;;;4.65;;
28007;SDS011;15333;50.010;20.020;2023-06-14T16:53:36;5.20;;;4.45;;
28007;SDS011;15333;50.010;20.020;2023-06-14T17:18:28;8.02;;;5.00;;
28007;SDS011;15333;50.010;20.020;2023-06-14T17:21:29;6.07;;;4.80;;
28007;SDS011;15333;50.010;20.020;2023-06-14T17:24:31;5.10;;;4.22;;
28007;SDS011;15333;50.010;20.020;2023-06-14T17:27:32;6.32;;;4.53;;
28007;SDS011;15333;50.010;20.020;2023-06-14T17:30:33;7.82;;;4.75;;
28007;SDS011;15333;50.010;20.020;2023-06-14T17:33:34;7.05;;;4.30;;
28007;SDS011;15333;50.010;20.020;2023-06-14T17:36:36;5.25;;;4.57;;
28007;SDS011;15333;50.010;20.020;2023-06-14T17:39:37;5.90;;;4.43;;
28007;SDS011;15333;50.010;20.020;2023-06-14T17:42:41;5.63;;;3.90;;
28007;SDS011;15333;50.010;20.020;2023-06-14T17:45:42;7.00;;;3.80;;
28007;SDS011;15333;50.010;20.020;2023-06-14T17:48:43;4.20;;;3.80;;
28007;SDS011;15333;50.010;20.020;2023-06-14T17:51:44;4.80;;;3.80;;
28007;SDS011;15333;50.010;20.020;2023-06-14T17:54:45;6.22;;;4.63;;
28007;SDS011;15333;50.010;20.020;2023-06-14T17:57:46;6.88;;;4.78;;
28007;SDS011;15333;50.010;20.020;2023-06-14T18:00:49;5.50;;;4.30;;
28007;SDS011;15333;50.010;20.020;2023-06-14T18:03:51;5.55;;;4.50;;
28007;SDS011;15333;50.010;20.020;2023-06-14T18:06:52;6.80;;;4.75;;
28007;SDS011;15333;50.010;20.020;2023-06-14T18:09:53;8.00;;;5.10;;
28007;SDS011;15333;50.010;20.020;2023-06-14T18:12:54;6.93;;;5.00;;
28007;SDS011;15333;50.010;20.020;2023-06-14T18:15:57;6.97;;;4.47;;
28007;SDS011;15333;50.010;20.020;2023-06-14T18:18:58;7.25;;;5.07;;
28007;SDS011;15333;50.010;20.020;2023-06-14T18:21:59;6.13;;;5.03;;
28007;SDS011;15333;50.010;20.020;2023-06-14T18:25:00;6.82;;;5.10;;
28007;SDS011;15333;50.010;20.020;2023-06-14T18:28:01;9.35;;;6.05;;